Time;durP1;ratioP1;P1;durP2;ratioP2;P2;SDS_P1;SDS_P2;PMS_P1;PMS_P2;Temp;Humidity;BMP_temperature;BMP_pressure;BME280_temperature;BME280_humidity;BME280_pressure;Samples;Min_cycle;Max_cycle;Signal;HPM_P1;HPM_P2
2021/10/31 00:01:20;;;;;;;11.73;9.67;;;11.90;99.90;;;;;;5074326;28;20501;-72
2021/10/31 00:04:06;;;;;;;13.33;10.10;;;12.00;99.90;;;;;;5074196;28;20453;-72
2021/10/31 00:06:52;;;;;;;13.27;9.80;;;12.00;99.90;;;;;;5074192;28;20438;-72
2021/10/31 00:09:38;;;;;;;14.27;9.40;;;12.10;99.90;;;;;;5054260;28;20926;-72
2021/10/31 00:12:24;;;;;;;11.20;8.63;;;12.10;99.90;;;;;;5038607;28;20431;-72
2021/10/31 00:15:10;;;;;;;12.83;9.57;;;12.10;99.90;;;;;;5053605;28;20522;-72
2021/10/31 00:17:56;;;;;;;12.87;8.50;;;12.10;99.90;;;;;;5053737;28;20463;-72
2021/10/31 00:20:41;;;;;;;13.57;8.13;;;12.10;99.90;;;;;;5053723;28;20932;-72
2021/10/31 00:23:29;;;;;;;11.67;8.60;;;12.20;99.90;;;;;;5053759;28;20562;-71
2021/10/31 00:26:14;;;;;;;10.00;8.27;;;12.20;99.90;;;;;;5059042;28;20447;-71
2021/10/31 00:29:00;;;;;;;10.90;8.80;;;12.20;99.90;;;;;;5054731;28;20419;-72
2021/10/31 00:31:46;;;;;;;9.63;7.63;;;12.20;99.90;;;;;;5053513;28;20423;-72
2021/10/31 00:34:32;;;;;;;10.40;8.33;;;12.20;99.90;;;;;;5053517;28;20614;-71
2021/10/31 00:37:18;;;;;;;10.47;7.40;;;12.10;99.90;;;;;;5053411;28;20423;-72
2021/10/31 00:40:06;;;;;;;16.60;6.90;;;12.20;99.90;;;;;;5052810;28;20557;-72
2021/10/31 00:42:52;;;;;;;9.83;7.93;;;12.10;99.90;;;;;;5053305;28;20428;-71
2021/10/31 00:45:37;;;;;;;9.30;7.30;;;12.00;99.90;;;;;;5053125;28;20571;-72
2021/10/31 00:48:23;;;;;;;11.67;7.03;;;12.00;99.90;;;;;;5052913;28;20867;-72
2021/10/31 00:51:09;;;;;;;11.20;6.90;;;11.90;99.90;;;;;;5053178;28;20394;-72
2021/10/31 00:53:56;;;;;;;9.90;7.77;;;11.80;99.90;;;;;;5053288;28;20420;-72
2021/10/31 00:56:43;;;;;;;9.83;7.70;;;11.80;99.90;;;;;;5055438;28;20517;-72
2021/10/31 00:59:28;;;;;;;11.97;8.00;;;11.80;99.90;;;;;;5064147;28;20440;-71
2021/10/31 01:02:16;;;;;;;11.83;7.43;;;11.80;99.90;;;;;;5072904;28;20438;-72
2021/10/31 01:05:05;;;;;;;8.50;6.47;;;11.80;99.90;;;;;;5072881;28;20439;-72
2021/10/31 01:08:17;;;;;;;9.33;7.23;;;11.80;99.90;;;;;;5071803;28;20508;-72
2021/10/31 01:11:17;;;;;;;9.50;7.00;;;11.90;99.90;;;;;;5064869;28;20405;-74
2021/10/31 01:14:29;;;;;;;8.10;5.80;;;11.90;99.90;;;;;;5052746;28;21145;-72
2021/10/31 01:17:39;;;;;;;8.60;6.50;;;12.10;99.90;;;;;;5052522;28;20415;-72
2021/10/31 01:20:37;;;;;;;9.73;6.50;;;12.20;99.90;;;;;;5052530;28;20396;-72
2021/10/31 01:23:37;;;;;;;14.03;7.30;;;12.40;99.90;;;;;;5051753;28;20470;-72
2021/10/31 01:26:37;;;;;;;11.23;7.10;;;12.30;99.90;;;;;;5058922;28;20978;-72
2021/10/31 01:29:45;;;;;;;9.13;7.13;;;12.40;99.90;;;;;;5063689;28;20415;-72
2021/10/31 01:32:41;;;;;;;12.17;6.40;;;12.30;99.90;;;;;;5072200;28;20389;-72
2021/10/31 01:35:44;;;;;;;8.87;6.20;;;12.30;99.90;;;;;;5072233;28;20409;-72
2021/10/31 01:38:41;;;;;;;8.90;6.20;;;12.20;99.90;;;;;;5071708;28;20504;-72
2021/10/31 01:41:39;;;;;;;6.67;5.50;;;12.20;99.90;;;;;;5072283;28;20414;-72
2021/10/31 01:44:32;;;;;;;7.97;5.30;;;12.10;99.90;;;;;;5072221;28;20425;-72
2021/10/31 01:47:35;;;;;;;7.87;5.10;;;11.90;99.90;;;;;;5072021;28;20422;-72
2021/10/31 01:50:34;;;;;;;14.20;5.93;;;11.80;99.90;;;;;;5071824;28;20388;-72
2021/10/31 01:53:26;;;;;;;8.23;5.93;;;11.80;99.90;;;;;;5071987;28;20414;-72
2021/10/31 01:56:15;;;;;;;6.93;5.10;;;11.70;99.90;;;;;;5071957;28;20453;-72
2021/10/31 01:59:05;;;;;;;9.13;6.13;;;11.60;99.90;;;;;;5039969;28;20462;-72
2021/10/31 02:01:52;;;;;;;11.23;5.30;;;11.50;99.90;;;;;;5071064;28;20443;-72
2021/10/31 02:04:40;;;;;;;8.70;5.50;;;11.40;99.90;;;;;;5071637;28;20928;-72
2021/10/31 02:07:27;;;;;;;7.47;5.13;;;11.30;99.90;;;;;;5071101;28;20907;-72
2021/10/31 02:10:14;;;;;;;9.80;5.10;;;11.30;99.90;;;;;;5058505;28;20431;-72
2021/10/31 02:13:02;;;;;;;6.47;4.43;;;11.30;99.90;;;;;;5051738;28;20423;-72
2021/10/31 02:15:52;;;;;;;9.37;5.70;;;11.30;99.90;;;;;;5051441;28;20807;-72
2021/10/31 02:18:38;;;;;;;8.90;5.90;;;11.40;99.90;;;;;;5031314;28;20488;-72
2021/10/31 02:21:28;;;;;;;9.00;6.47;;;11.50;99.90;;;;;;5031863;28;20399;-72
2021/10/31 02:24:15;;;;;;;7.50;6.40;;;11.60;99.90;;;;;;5031789;28;20447;-72
2021/10/31 02:27:01;;;;;;;10.23;6.73;;;11.70;99.90;;;;;;5055336;28;20422;-72
2021/10/31 02:29:51;;;;;;;7.87;6.30;;;11.80;99.90;;;;;;5062712;28;20415;-72
2021/10/31 02:32:37;;;;;;;6.53;5.83;;;11.80;99.90;;;;;;5071786;28;20419;-72
2021/10/31 02:35:23;;;;;;;13.13;5.40;;;11.80;99.90;;;;;;5066536;28;20471;-72
2021/10/31 02:38:09;;;;;;;9.03;5.60;;;11.80;99.90;;;;;;5055524;28;20427;-72
2021/10/31 02:40:56;;;;;;;6.17;4.37;;;11.80;99.90;;;;;;5055705;28;20470;-72
2021/10/31 02:43:42;;;;;;;10.90;4.67;;;11.70;99.90;;;;;;5055489;28;20796;-72
2021/10/31 02:46:30;;;;;;;6.93;4.87;;;11.70;99.90;;;;;;5055512;28;20870;-72
2021/10/31 02:49:16;;;;;;;6.87;5.27;;;11.70;99.90;;;;;;5055247;28;20533;-72
2021/10/31 02:52:09;;;;;;;5.87;4.97;;;11.60;99.90;;;;;;5055188;28;20851;-72
2021/10/31 02:55:07;;;;;;;6.23;4.53;;;11.60;99.90;;;;;;5055576;28;20421;-72
2021/10/31 02:57:57;;;;;;;11.27;5.43;;;11.50;99.90;;;;;;5070045;28;20428;-72
2021/10/31 03:00:43;;;;;;;10.13;4.90;;;11.50;99.90;;;;;;5074640;28;20851;-72
2021/10/31 03:03:31;;;;;;;15.17;5.73;;;11.50;99.90;;;;;;5075267;28;20469;-72
2021/10/31 03:06:21;;;;;;;6.13;4.50;;;11.50;99.90;;;;;;5074220;28;20855;-72
2021/10/31 03:09:06;;;;;;;7.77;4.70;;;11.30;99.90;;;;;;5059866;28;20903;-72
2021/10/31 03:12:00;;;;;;;7.67;4.90;;;11.30;99.90;;;;;;5055030;28;20506;-72
2021/10/31 03:14:47;;;;;;;8.43;5.10;;;11.20;99.90;;;;;;5054802;28;20424;-72
2021/10/31 03:17:32;;;;;;;6.40;4.30;;;11.20;99.90;;;;;;5054931;28;20394;-72
2021/10/31 03:20:18;;;;;;;8.60;4.17;;;11.20;99.90;;;;;;5054652;28;20467;-72
2021/10/31 03:23:04;;;;;;;10.53;5.00;;;11.10;99.90;;;;;;5054638;28;20419;-72
2021/10/31 03:25:50;;;;;;;7.87;5.77;;;11.10;99.90;;;;;;5057008;28;20442;-72
2021/10/31 03:28:36;;;;;;;7.93;5.27;;;11.00;99.90;;;;;;5065805;28;20494;-72
2021/10/31 03:31:23;;;;;;;7.20;4.90;;;11.10;99.90;;;;;;5074647;28;20497;-72
2021/10/31 03:34:09;;;;;;;10.50;5.33;;;11.00;99.90;;;;;;5074569;28;20456;-72
2021/10/31 03:36:54;;;;;;;8.90;4.77;;;11.00;99.90;;;;;;5074764;28;20446;-72
2021/10/31 03:39:41;;;;;;;9.27;5.30;;;11.00;99.90;;;;;;5073943;28;20944;-72
2021/10/31 03:42:27;;;;;;;6.90;5.47;;;10.90;99.90;;;;;;5074750;28;20409;-72
2021/10/31 03:45:13;;;;;;;6.30;4.83;;;10.90;99.90;;;;;;5073705;28;20944;-72
2021/10/31 03:48:03;;;;;;;17.53;5.57;;;10.90;99.90;;;;;;5040924;28;20567;-72
2021/10/31 03:50:48;;;;;;;4.97;4.40;;;10.90;99.90;;;;;;5033819;28;20421;-72
2021/10/31 03:53:34;;;;;;;5.90;5.23;;;10.80;99.90;;;;;;5034374;28;20435;-72
2021/10/31 03:56:20;;;;;;;4.57;4.13;;;10.80;99.90;;;;;;5046737;28;20947;-72
2021/10/31 03:59:06;;;;;;;6.63;5.50;;;10.80;99.90;;;;;;5056104;28;20566;-72
2021/10/31 04:01:51;;;;;;;7.50;4.70;;;10.70;99.90;;;;;;5054229;28;20420;-72
2021/10/31 04:04:38;;;;;;;5.97;4.80;;;10.70;99.90;;;;;;5054113;28;20424;-72
2021/10/31 04:07:24;;;;;;;12.50;5.17;;;10.70;99.90;;;;;;5053129;28;20428;-72
2021/10/31 04:10:10;;;;;;;9.77;5.30;;;10.60;99.90;;;;;;5053513;28;20531;-72
2021/10/31 04:12:56;;;;;;;10.03;4.53;;;10.60;99.90;;;;;;5053860;28;20514;-72
2021/10/31 04:15:42;;;;;;;6.10;4.87;;;10.50;99.90;;;;;;5053752;28;20422;-72
2021/10/31 04:18:28;;;;;;;4.73;3.47;;;10.50;99.90;;;;;;5053564;28;20971;-72
2021/10/31 04:21:15;;;;;;;6.47;4.60;;;10.60;99.90;;;;;;5053566;28;20415;-72
2021/10/31 04:24:01;;;;;;;6.60;4.97;;;10.50;99.90;;;;;;5053992;28;20394;-72
2021/10/31 04:26:47;;;;;;;5.83;4.40;;;10.50;99.90;;;;;;5063394;28;20788;-72
2021/10/31 04:29:33;;;;;;;5.63;4.13;;;10.50;99.90;;;;;;5064901;28;20410;-72
2021/10/31 04:32:19;;;;;;;5.70;4.63;;;10.50;99.90;;;;;;5073719;28;20419;-72
2021/10/31 04:35:05;;;;;;;5.77;4.70;;;10.50;99.90;;;;;;5074024;28;20434;-72
2021/10/31 04:37:55;;;;;;;5.43;4.33;;;10.50;99.90;;;;;;5073497;28;20423;-71
2021/10/31 04:40:41;;;;;;;5.57;4.40;;;10.60;99.90;;;;;;5073498;28;20441;-72
2021/10/31 04:43:27;;;;;;;6.90;4.07;;;10.60;99.90;;;;;;5073511;28;20931;-71
2021/10/31 04:46:13;;;;;;;5.70;4.47;;;10.50;99.90;;;;;;5073023;28;20481;-72
2021/10/31 04:48:59;;;;;;;7.17;4.90;;;10.50;99.90;;;;;;5072927;28;20438;-72
2021/10/31 04:51:44;;;;;;;5.40;4.67;;;10.60;99.90;;;;;;5073310;28;20443;-71
2021/10/31 04:54:31;;;;;;;5.47;4.40;;;10.70;99.90;;;;;;5073823;28;20418;-71
2021/10/31 04:57:17;;;;;;;5.27;4.07;;;10.70;99.90;;;;;;5073327;28;20505;-73
2021/10/31 05:00:04;;;;;;;9.00;3.70;;;10.80;99.90;;;;;;5060263;28;20540;-74
2021/10/31 05:02:51;;;;;;;5.20;4.67;;;10.80;99.90;;;;;;5072889;28;20485;-74
2021/10/31 05:05:36;;;;;;;6.20;3.47;;;10.80;99.90;;;;;;5064059;28;20590;-74
2021/10/31 05:08:22;;;;;;;6.17;4.10;;;10.80;99.90;;;;;;5051617;28;20904;-74
2021/10/31 05:11:09;;;;;;;5.87;4.83;;;10.80;99.90;;;;;;5053059;28;20458;-74
2021/10/31 05:13:55;;;;;;;5.60;4.23;;;10.90;99.90;;;;;;5052609;28;20422;-74
2021/10/31 05:16:41;;;;;;;4.53;3.80;;;10.80;99.90;;;;;;5052745;28;20443;-74
2021/10/31 05:19:26;;;;;;;7.40;4.73;;;10.80;99.90;;;;;;5052171;28;20801;-74
2021/10/31 05:22:12;;;;;;;5.50;4.40;;;10.80;99.90;;;;;;5052641;28;20468;-75
2021/10/31 05:24:58;;;;;;;5.43;4.43;;;10.80;99.90;;;;;;5052591;28;20494;-74
2021/10/31 05:27:45;;;;;;;5.63;4.10;;;10.80;99.90;;;;;;5067157;28;20948;-73
2021/10/31 05:30:30;;;;;;;5.27;4.03;;;10.90;99.90;;;;;;5069954;28;20813;-74
2021/10/31 05:33:17;;;;;;;5.17;4.17;;;10.90;99.90;;;;;;5072173;28;20504;-75
2021/10/31 05:36:03;;;;;;;7.03;4.50;;;10.80;99.90;;;;;;5055666;28;20827;-74
2021/10/31 05:38:49;;;;;;;6.10;4.07;;;10.80;99.90;;;;;;5050648;28;20924;-75
2021/10/31 05:41:35;;;;;;;6.13;4.93;;;10.80;99.90;;;;;;5052224;28;20924;-74
2021/10/31 05:44:22;;;;;;;8.07;5.10;;;10.80;99.90;;;;;;5051985;28;20888;-74
2021/10/31 05:47:09;;;;;;;5.00;4.50;;;10.80;99.90;;;;;;5052155;28;20864;-75
2021/10/31 05:49:55;;;;;;;6.57;4.37;;;10.80;99.90;;;;;;5051753;28;20498;-74
2021/10/31 05:52:41;;;;;;;10.73;5.00;;;10.80;99.90;;;;;;5052794;28;20415;-75
2021/10/31 05:55:26;;;;;;;5.77;4.20;;;10.90;99.90;;;;;;5052126;28;20451;-74
2021/10/31 05:58:12;;;;;;;6.07;4.77;;;10.90;99.90;;;;;;5064637;28;20395;-75
2021/10/31 06:00:59;;;;;;;6.80;4.80;;;10.90;99.90;;;;;;5031929;28;20459;-75
2021/10/31 06:03:45;;;;;;;11.77;5.40;;;10.90;99.90;;;;;;5037406;28;20520;-75
2021/10/31 06:06:30;;;;;;;5.43;4.50;;;10.90;99.90;;;;;;5050870;28;20439;-75
2021/10/31 06:09:16;;;;;;;6.87;4.80;;;10.90;99.90;;;;;;5051068;28;20423;-75
2021/10/31 06:12:04;;;;;;;8.50;4.67;;;11.00;99.90;;;;;;5051555;28;20952;-75
2021/10/31 06:14:50;;;;;;;7.73;4.90;;;11.00;99.90;;;;;;5051739;28;20434;-74
2021/10/31 06:17:39;;;;;;;7.00;6.30;;;11.00;99.90;;;;;;5052138;28;20944;-74
2021/10/31 06:20:25;;;;;;;10.40;7.20;;;10.90;99.90;;;;;;5050995;28;20573;-75
2021/10/31 06:23:10;;;;;;;8.30;6.67;;;10.90;99.90;;;;;;5051683;28;20419;-75
2021/10/31 06:25:56;;;;;;;9.43;7.80;;;11.00;99.90;;;;;;5054507;28;20934;-74
2021/10/31 06:28:41;;;;;;;10.17;7.03;;;11.00;99.90;;;;;;5062760;28;20435;-74
2021/10/31 06:31:27;;;;;;;10.63;7.67;;;11.00;99.90;;;;;;5071655;28;20509;-74
2021/10/31 06:34:14;;;;;;;9.17;6.70;;;11.00;99.90;;;;;;5071752;28;20472;-74
2021/10/31 06:36:59;;;;;;;7.13;5.67;;;11.00;99.90;;;;;;5071721;28;20431;-74
2021/10/31 06:39:45;;;;;;;8.60;6.73;;;11.00;99.90;;;;;;5071052;28;20444;-74
2021/10/31 06:42:31;;;;;;;6.57;5.87;;;11.00;99.90;;;;;;5071462;28;20789;-74
2021/10/31 06:45:17;;;;;;;8.10;6.10;;;11.00;99.90;;;;;;5071343;28;20581;-74
2021/10/31 06:48:04;;;;;;;8.17;6.80;;;11.00;99.90;;;;;;5071363;28;20426;-74
2021/10/31 06:50:53;;;;;;;6.80;6.10;;;11.10;99.90;;;;;;5071465;28;20435;-75
2021/10/31 06:53:39;;;;;;;7.10;5.73;;;11.00;99.90;;;;;;5071242;28;21019;-74
2021/10/31 06:56:26;;;;;;;6.03;4.80;;;11.00;99.90;;;;;;5070953;28;20512;-74
2021/10/31 06:59:11;;;;;;;6.33;4.90;;;11.00;99.90;;;;;;5059131;28;20427;-74
2021/10/31 07:01:57;;;;;;;6.93;5.10;;;11.00;99.90;;;;;;5051511;28;21001;-75
2021/10/31 07:04:43;;;;;;;7.03;4.50;;;11.00;99.90;;;;;;5051348;28;20438;-74
2021/10/31 07:07:30;;;;;;;6.63;4.30;;;11.00;99.90;;;;;;5050158;28;20474;-74
2021/10/31 07:10:16;;;;;;;6.63;4.97;;;11.00;99.90;;;;;;5050688;28;20847;-74
2021/10/31 07:13:01;;;;;;;5.10;4.20;;;11.10;99.90;;;;;;5051104;28;20424;-73
2021/10/31 07:15:47;;;;;;;5.03;4.10;;;11.00;99.90;;;;;;5051312;28;20442;-74
2021/10/31 07:18:33;;;;;;;11.40;6.33;;;10.90;99.90;;;;;;5050929;28;20423;-74
2021/10/31 07:21:18;;;;;;;6.97;4.90;;;10.90;99.90;;;;;;5053845;28;20463;-75
2021/10/31 07:24:07;;;;;;;6.57;5.00;;;10.90;99.90;;;;;;5052389;28;20459;-74
2021/10/31 07:26:53;;;;;;;8.97;5.40;;;11.00;99.90;;;;;;5061597;28;20450;-74
2021/10/31 07:29:39;;;;;;;9.40;5.97;;;11.00;99.90;;;;;;5065433;28;20442;-74
2021/10/31 07:32:25;;;;;;;6.20;5.60;;;11.00;99.90;;;;;;5074875;28;20387;-74
2021/10/31 07:35:11;;;;;;;12.50;5.73;;;11.10;99.90;;;;;;5074203;28;20941;-74
2021/10/31 07:37:57;;;;;;;8.00;5.40;;;11.20;99.90;;;;;;5074528;28;20414;-74
2021/10/31 07:40:44;;;;;;;6.10;4.87;;;11.10;99.90;;;;;;5074342;28;20444;-75
2021/10/31 07:43:30;;;;;;;5.63;5.03;;;11.10;99.90;;;;;;5074675;28;20415;-74
2021/10/31 07:46:16;;;;;;;9.47;5.43;;;11.10;99.90;;;;;;5074428;28;21058;-73
2021/10/31 07:49:02;;;;;;;6.50;5.07;;;11.20;99.90;;;;;;5074120;28;20392;-74
2021/10/31 07:51:48;;;;;;;6.83;5.50;;;11.20;99.90;;;;;;5074047;28;20406;-74
2021/10/31 07:54:33;;;;;;;6.83;5.43;;;11.30;99.90;;;;;;5074363;28;20898;-75
2021/10/31 07:57:22;;;;;;;7.57;5.90;;;11.40;99.90;;;;;;5074135;28;20427;-74
2021/10/31 08:00:08;;;;;;;5.73;4.80;;;11.50;99.90;;;;;;5058944;28;20427;-74
2021/10/31 08:02:54;;;;;;;9.67;5.90;;;11.60;99.90;;;;;;5034394;28;20544;-75
2021/10/31 08:05:39;;;;;;;7.20;5.50;;;11.60;99.90;;;;;;5034272;28;20443;-75
2021/10/31 08:08:26;;;;;;;6.43;4.70;;;11.70;99.90;;;;;;5033520;28;20390;-74
2021/10/31 08:11:12;;;;;;;6.23;4.80;;;11.80;99.90;;;;;;5034004;28;20425;-75
2021/10/31 08:13:59;;;;;;;8.57;5.77;;;11.80;99.90;;;;;;5034043;28;20435;-74
2021/10/31 08:16:45;;;;;;;6.50;4.93;;;11.80;99.90;;;;;;5033852;28;20444;-74
2021/10/31 08:19:31;;;;;;;5.77;3.60;;;11.90;99.90;;;;;;5033754;28;20391;-75
2021/10/31 08:22:16;;;;;;;8.17;5.17;;;12.10;99.90;;;;;;5033801;28;20464;-75
2021/10/31 08:25:03;;;;;;;10.27;7.47;;;12.20;99.90;;;;;;5033627;28;20440;-74
2021/10/31 08:27:49;;;;;;;10.10;8.50;;;12.20;99.90;;;;;;5066972;28;20436;-75
2021/10/31 08:30:36;;;;;;;14.23;8.40;;;12.20;99.90;;;;;;5071896;28;20418;-75
2021/10/31 08:33:24;;;;;;;10.77;7.87;;;12.30;99.90;;;;;;5072870;28;20898;-75
2021/10/31 08:36:10;;;;;;;12.60;9.60;;;12.40;99.90;;;;;;5073420;28;20438;-75
2021/10/31 08:38:56;;;;;;;10.70;8.90;;;12.60;99.90;;;;;;5073062;28;20489;-74
2021/10/31 08:41:42;;;;;;;12.20;8.80;;;12.80;99.90;;;;;;5073108;28;20889;-75
2021/10/31 08:44:28;;;;;;;8.70;7.00;;;12.90;99.90;;;;;;5073419;28;20931;-74
2021/10/31 08:47:15;;;;;;;11.00;9.40;;;13.00;99.90;;;;;;5073152;28;20397;-75
2021/10/31 08:50:01;;;;;;;14.90;9.17;;;13.10;99.90;;;;;;5072792;28;20465;-74
2021/10/31 08:52:46;;;;;;;9.57;7.63;;;13.20;99.90;;;;;;5073273;28;20561;-74
2021/10/31 08:55:32;;;;;;;11.63;7.60;;;13.30;99.90;;;;;;5073117;28;20429;-75
2021/10/31 08:58:18;;;;;;;8.27;6.80;;;13.30;99.90;;;;;;5056750;28;20443;-75
2021/10/31 09:01:04;;;;;;;9.60;7.10;;;13.40;99.90;;;;;;5050953;28;20471;-75
2021/10/31 09:03:52;;;;;;;10.13;7.83;;;13.40;99.90;;;;;;5053132;28;20533;-75
2021/10/31 09:06:38;;;;;;;8.57;7.67;;;13.40;99.90;;;;;;5051866;28;20411;-74
2021/10/31 09:09:24;;;;;;;13.43;7.47;;;13.50;99.90;;;;;;5052513;28;20895;-75
2021/10/31 09:12:11;;;;;;;11.47;7.80;;;13.50;99.90;;;;;;5052916;28;20514;-74
2021/10/31 09:14:57;;;;;;;10.10;6.23;;;13.60;99.90;;;;;;5033758;28;20457;-75
2021/10/31 09:17:42;;;;;;;5.90;5.10;;;13.70;99.90;;;;;;5032149;28;20486;-74
2021/10/31 09:20:30;;;;;;;6.83;4.60;;;13.80;99.90;;;;;;5032347;28;20395;-74
2021/10/31 09:23:16;;;;;;;5.87;5.03;;;14.00;99.90;;;;;;5033081;28;20938;-75
2021/10/31 09:26:02;;;;;;;8.23;3.93;;;14.10;99.90;;;;;;5039857;28;20573;-75
2021/10/31 09:28:47;;;;;;;8.33;4.37;;;14.30;99.90;;;;;;5064015;28;20501;-74
2021/10/31 09:31:33;;;;;;;4.07;3.13;;;14.40;99.90;;;;;;5072402;28;20899;-75
2021/10/31 09:34:19;;;;;;;6.80;2.80;;;14.50;99.90;;;;;;5072347;28;20397;-74
2021/10/31 09:37:06;;;;;;;8.33;2.40;;;14.60;99.90;;;;;;5072284;28;20422;-75
2021/10/31 09:39:52;;;;;;;4.07;2.57;;;14.80;99.90;;;;;;5071817;28;20765;-75
2021/10/31 09:42:38;;;;;;;5.97;2.50;;;14.90;99.90;;;;;;5072272;28;20832;-74
2021/10/31 09:45:25;;;;;;;3.40;2.33;;;15.10;99.90;;;;;;5071403;28;20447;-75
2021/10/31 09:48:12;;;;;;;4.97;2.20;;;15.20;99.90;;;;;;5071812;28;20894;-74
2021/10/31 09:51:01;;;;;;;3.77;1.80;;;15.40;99.90;;;;;;5072327;28;20740;-74
2021/10/31 09:53:48;;;;;;;2.60;1.80;;;15.60;99.90;;;;;;5072185;28;20436;-74
2021/10/31 09:56:35;;;;;;;9.90;2.47;;;15.80;99.90;;;;;;5071622;28;20480;-74
2021/10/31 09:59:25;;;;;;;2.03;1.40;;;16.00;99.90;;;;;;5063310;28;20430;-75
2021/10/31 10:02:13;;;;;;;2.20;1.40;;;16.30;99.90;;;;;;5072060;28;20825;-75
2021/10/31 10:04:59;;;;;;;1.70;0.90;;;16.40;99.90;;;;;;5071857;28;20485;-75
2021/10/31 10:07:45;;;;;;;2.90;1.33;;;16.60;99.90;;;;;;5070959;28;20427;-74
2021/10/31 10:10:40;;;;;;;2.20;1.00;;;16.70;99.90;;;;;;5071704;28;20393;-74
2021/10/31 10:13:29;;;;;;;2.20;1.20;;;16.80;99.90;;;;;;5071848;28;20555;-75
2021/10/31 10:16:24;;;;;;;2.23;1.00;;;16.80;99.90;;;;;;5071765;28;20532;-75
2021/10/31 10:19:23;;;;;;;2.23;1.07;;;16.70;99.90;;;;;;5071353;28;20422;-75
2021/10/31 10:22:10;;;;;;;1.77;1.10;;;16.80;99.90;;;;;;5071553;28;20460;-73
2021/10/31 10:24:59;;;;;;;2.17;1.13;;;16.90;99.90;;;;;;5071812;28;20485;-75
2021/10/31 10:27:53;;;;;;;1.50;0.90;;;17.00;99.90;;;;;;5068472;28;20435;-75
2021/10/31 10:30:39;;;;;;;1.70;0.90;;;17.00;99.90;;;;;;5070432;28;20486;-74
2021/10/31 10:33:25;;;;;;;3.00;1.20;;;17.00;99.90;;;;;;5071758;28;20520;-75
2021/10/31 10:36:15;;;;;;;2.30;1.20;;;17.10;99.90;;;;;;5071485;28;20562;-74
2021/10/31 10:39:06;;;;;;;2.60;0.90;;;17.10;99.90;;;;;;5071145;28;20776;-75
2021/10/31 10:41:53;;;;;;;7.07;1.17;;;17.20;99.90;;;;;;5071569;28;20462;-74
2021/10/31 10:44:40;;;;;;;2.50;1.00;;;17.30;99.90;;;;;;5071517;28;20947;-75
2021/10/31 10:47:27;;;;;;;2.47;1.17;;;17.20;99.90;;;;;;5071749;28;20494;-75
2021/10/31 10:50:16;;;;;;;2.03;1.00;;;17.30;99.90;;;;;;5071125;28;20390;-74
2021/10/31 10:53:02;;;;;;;2.10;1.00;;;17.30;99.90;;;;;;5071135;28;20764;-74
2021/10/31 10:55:49;;;;;;;2.57;1.17;;;17.30;99.90;;;;;;5074208;28;20474;-74
2021/10/31 10:58:35;;;;;;;3.63;1.23;;;17.30;99.90;;;;;;5062954;28;20405;-74
2021/10/31 11:01:22;;;;;;;2.70;1.33;;;17.40;99.90;;;;;;5075337;28;20504;-73
2021/10/31 11:04:29;;;;;;;2.60;1.03;;;17.40;99.90;;;;;;5035656;28;20407;-73
2021/10/31 11:07:15;;;;;;;2.27;1.10;;;17.40;99.90;;;;;;5034581;28;20432;-74
2021/10/31 11:10:02;;;;;;;1.93;1.10;;;17.40;99.90;;;;;;5034467;28;20403;-74
2021/10/31 11:12:49;;;;;;;1.93;1.00;;;17.40;99.90;;;;;;5035206;28;20811;-73
2021/10/31 11:15:36;;;;;;;2.37;1.33;;;17.40;99.90;;;;;;5035099;28;20422;-74
2021/10/31 11:18:23;;;;;;;1.70;1.00;;;17.40;99.90;;;;;;5034891;28;20420;-73
2021/10/31 11:21:09;;;;;;;2.10;1.53;;;17.30;99.90;;;;;;5034840;28;20444;-73
2021/10/31 11:23:57;;;;;;;2.17;1.30;;;17.30;99.90;;;;;;5035018;28;20404;-74
2021/10/31 11:26:45;;;;;;;3.67;2.20;;;17.30;99.90;;;;;;5053616;28;20462;-74
2021/10/31 11:29:31;;;;;;;2.27;1.50;;;17.20;99.90;;;;;;5065912;28;20569;-73
2021/10/31 11:32:19;;;;;;;2.00;1.27;;;17.20;99.90;;;;;;5074781;28;20770;-73
2021/10/31 11:35:08;;;;;;;2.40;1.40;;;17.10;99.90;;;;;;5074682;28;20541;-74
2021/10/31 11:37:59;;;;;;;4.17;1.30;;;17.10;99.90;;;;;;5074784;28;20434;-74
2021/10/31 11:40:48;;;;;;;2.10;1.33;;;17.10;99.90;;;;;;5074425;28;20388;-73
2021/10/31 11:43:36;;;;;;;4.33;1.40;;;17.00;99.90;;;;;;5074702;28;20431;-73
2021/10/31 11:46:37;;;;;;;2.77;1.63;;;17.00;99.90;;;;;;5074250;28;20574;-74
2021/10/31 11:49:22;;;;;;;2.60;1.40;;;17.00;99.90;;;;;;5074273;28;20864;-74
2021/10/31 11:52:48;;;;;;;2.20;1.50;;;17.00;99.90;;;;;;5074346;28;20411;-73
2021/10/31 11:55:57;;;;;;;2.13;1.20;;;17.00;99.90;;;;;;5073936;28;20458;-74
2021/10/31 11:58:47;;;;;;;2.33;1.40;;;17.10;99.90;;;;;;5064308;28;20447;-74
2021/10/31 12:01:39;;;;;;;3.40;1.47;;;17.10;99.90;;;;;;5074137;28;20969;-74
2021/10/31 12:05:04;;;;;;;2.63;1.50;;;17.10;99.90;;;;;;5074448;28;20793;-73
2021/10/31 12:07:51;;;;;;;5.53;1.87;;;17.20;99.90;;;;;;5060050;28;20418;-74
2021/10/31 12:10:47;;;;;;;3.90;1.53;;;17.40;99.90;;;;;;5074472;28;20423;-74
2021/10/31 12:13:41;;;;;;;2.63;1.53;;;17.60;99.90;;;;;;5074186;28;20459;-74
2021/10/31 12:16:27;;;;;;;2.90;1.63;;;17.80;99.90;;;;;;5073772;28;20500;-74
2021/10/31 12:19:12;;;;;;;2.20;1.47;;;18.10;99.90;;;;;;5073579;28;20477;-74
2021/10/31 12:22:07;;;;;;;1.97;1.17;;;18.20;99.90;;;;;;5073619;28;20965;-74
2021/10/31 12:24:59;;;;;;;2.60;1.30;;;18.40;99.90;;;;;;5073687;28;20389;-74
2021/10/31 12:27:51;;;;;;;2.30;1.17;;;18.50;99.90;;;;;;5070348;28;20428;-74
2021/10/31 12:30:42;;;;;;;3.90;2.23;;;18.50;99.90;;;;;;5072192;28;20422;-74
2021/10/31 12:33:28;;;;;;;3.50;1.27;;;18.50;99.90;;;;;;5073789;28;20415;-74
2021/10/31 12:36:29;;;;;;;2.20;1.30;;;18.50;99.90;;;;;;5073666;28;20957;-74
2021/10/31 12:39:46;;;;;;;1.97;1.20;;;18.50;99.90;;;;;;5073291;28;20426;-73
2021/10/31 12:42:35;;;;;;;2.77;1.53;;;18.50;99.90;;;;;;5073303;28;20441;-74
2021/10/31 12:45:26;;;;;;;2.27;1.40;;;18.40;99.90;;;;;;5073475;28;20942;-74
2021/10/31 12:48:14;;;;;;;4.10;1.80;;;18.40;99.90;;;;;;5072988;28;20422;-73
2021/10/31 12:51:05;;;;;;;3.27;1.50;;;18.30;99.90;;;;;;5062770;28;20463;-73
2021/10/31 12:53:53;;;;;;;2.07;1.23;;;18.20;99.90;;;;;;5031473;28;20781;-73
2021/10/31 12:56:40;;;;;;;2.43;1.57;;;18.20;99.90;;;;;;5051210;28;20458;-73
2021/10/31 12:59:27;;;;;;;4.30;1.37;;;18.10;99.90;;;;;;5064316;28;20452;-73
2021/10/31 13:02:15;;;;;;;4.37;1.43;;;18.00;99.90;;;;;;5072745;28;20461;-73
2021/10/31 13:05:02;;;;;;;4.00;1.80;;;18.00;99.90;;;;;;5072810;28;20417;-73
2021/10/31 13:07:50;;;;;;;3.20;1.60;;;17.90;99.90;;;;;;5072122;28;20422;-73
2021/10/31 13:10:38;;;;;;;13.40;1.47;;;17.80;99.90;;;;;;5072596;28;20898;-73
2021/10/31 13:13:25;;;;;;;5.63;1.20;;;17.70;99.90;;;;;;5072814;28;20448;-73
2021/10/31 13:16:12;;;;;;;7.93;1.50;;;17.60;99.90;;;;;;5072539;28;20416;-73
2021/10/31 13:18:57;;;;;;;2.80;1.50;;;17.60;99.90;;;;;;5072196;28;20418;-73
2021/10/31 13:21:43;;;;;;;4.40;1.40;;;17.50;99.90;;;;;;5072401;28;20417;-74
2021/10/31 13:24:31;;;;;;;4.50;1.67;;;17.50;99.90;;;;;;5072745;28;20396;-73
2021/10/31 13:27:20;;;;;;;5.57;3.07;;;17.50;99.90;;;;;;5072505;28;20427;-73
2021/10/31 13:30:10;;;;;;;6.17;2.20;;;17.60;99.90;;;;;;5057952;28;20543;-73
2021/10/31 13:32:58;;;;;;;3.00;1.90;;;17.80;99.90;;;;;;5052507;28;20395;-73
2021/10/31 13:35:44;;;;;;;2.90;1.67;;;18.10;99.90;;;;;;5052183;28;20873;-73
2021/10/31 13:38:30;;;;;;;2.90;1.57;;;18.50;99.90;;;;;;5052339;28;20907;-73
2021/10/31 13:41:16;;;;;;;10.03;1.70;;;18.70;99.90;;;;;;5052117;28;20402;-73
2021/10/31 13:44:04;;;;;;;2.17;1.07;;;18.70;99.90;;;;;;5052307;28;20875;-73
2021/10/31 13:47:04;;;;;;;2.47;1.40;;;18.70;99.90;;;;;;5052424;28;20893;-73
2021/10/31 13:49:53;;;;;;;2.73;1.20;;;18.50;99.90;;;;;;5052015;28;20396;-73
2021/10/31 13:52:41;;;;;;;1.90;1.10;;;18.40;99.90;;;;;;5052126;28;20797;-73
2021/10/31 13:55:29;;;;;;;2.20;1.17;;;18.30;99.90;;;;;;5052186;28;20931;-73
2021/10/31 13:58:15;;;;;;;3.73;1.67;;;18.10;99.90;;;;;;5058948;28;20478;-73
2021/10/31 14:01:01;;;;;;;4.60;1.50;;;17.90;99.90;;;;;;5032036;28;21004;-73
2021/10/31 14:03:46;;;;;;;3.47;1.70;;;17.80;99.90;;;;;;5031916;28;20442;-74
2021/10/31 14:06:33;;;;;;;6.33;1.30;;;17.80;99.90;;;;;;5031255;28;20498;-73
2021/10/31 14:09:19;;;;;;;3.20;1.20;;;17.60;99.90;;;;;;5031916;28;20475;-73
2021/10/31 14:12:07;;;;;;;6.10;1.17;;;17.50;99.90;;;;;;5031178;28;20479;-73
2021/10/31 14:15:02;;;;;;;6.73;1.40;;;17.40;99.90;;;;;;5032046;28;20417;-73
2021/10/31 14:17:59;;;;;;;3.60;1.40;;;17.50;99.90;;;;;;5032081;28;21033;-73
2021/10/31 14:20:48;;;;;;;2.20;1.40;;;17.40;99.90;;;;;;5032050;28;20575;-73
2021/10/31 14:23:35;;;;;;;3.97;1.60;;;17.40;99.90;;;;;;5031665;28;20984;-74
2021/10/31 14:26:21;;;;;;;7.53;1.23;;;17.40;99.90;;;;;;5044562;28;20441;-73
2021/10/31 14:29:06;;;;;;;2.37;1.13;;;17.30;99.90;;;;;;5053669;28;20771;-73
2021/10/31 14:31:56;;;;;;;2.80;1.07;;;17.20;99.90;;;;;;5051378;28;20435;-73
2021/10/31 14:34:58;;;;;;;3.40;1.30;;;17.20;99.90;;;;;;5051439;28;20537;-73